首页
METAR-TAF:

METAR-TAF

机场 :

墨西哥城, 墨西哥

墨西哥城贝尼托·胡亚雷斯国际机场

纬度: 19-26N, 经度: 099-06W, 海拔: 2238米

当前天气观测

该预报发布于21分钟前的23:44 UTC
风速12节,风向东转东南
温度 17°C
湿度 27%
气压 1027 hPa
能見度: 12.9公里
散云层高于25000英尺

METAR: MMMX 172344Z 12012KT 8SM SCT250 17/M02 A3032 NOSIG RMK 8/004 HZY CU AC

时间: 18:05 (00:05 UTC)

预报

该预报发布于54分钟前的23:11 UTC
预报有效从18日的 00点(UTC)到 19日的 06点(UTC)
风速节,风向
能見度: 10公里
多云层高于25000英尺
从 18日的 1000点(UTC)
风速5节,风向东北
能見度: 8.0公里
多云层高于25000英尺
短暂存在
从 18日的 11点(UTC)到 18日的 15点(UTC)
能見度: 3.2公里
多云层高于800英尺
轻雾
从 18日的 1800点(UTC)
风速10节,风向东转东北
能見度: 10公里
多云层高于25000英尺
从 19日的 0200点(UTC)
风速5节,风向东南
能見度: 10公里
散云层高于25000英尺

TAF: MMMX 172311Z 1800/1906 00000KT P6SM BKN250 TX20/1821Z TN03/1812Z FM181000 04005KT 5SM HZ BKN250 TEMPO 1811/1815 2SM BR BKN008 FM181800 07010KT P6SM BKN250 FM190200 14005KT P6SM SCT250

超过4000个机场的气象观测和天气预报(METAR&TAF报告)。

可查询的气象台以黄色和红色小点在地图上表示。

将鼠标移到小点上方,可查看气象台名称。

然后点击查看天气观测和预报。

如需切换地图:点击带黑十字的绿色按钮放大地图;点击带横线的绿色按钮缩小地图;或者点击绿色箭头查看邻近地区的地图。


METAR-TAF: